Terminal Aerodrome Forecast
Issued by NWS

Home | Current Version | Previous Version | Text Only | Print | Product List | Glossary Off
Versions: 1 2 3 4 5 6 7 8 9 10 11 12 13 14 15 16 17

240
FTUS43 KTOP 030211 AAB
TAFMHK
TAF AMD
KMHK 030211Z 0302/0324 30012G24KT P6SM OVC012
      TEMPO 0302/0305 6SM -SN BKN009
     FM030800 32015G28KT P6SM BKN015
     FM031700 32014KT P6SM SCT020=

USA.gov is the U.S. government's official web portal to all federal, state and local government web resources and services.